createdAt,value
2023-06-30T00:00:42.061Z,21.29
2023-06-30T00:01:42.093Z,21.30
2023-06-30T00:02:42.167Z,21.28
2023-06-30T00:03:42.052Z,21.29
2023-06-30T00:04:41.918Z,21.28
2023-06-30T00:05:41.860Z,21.28
2023-06-30T00:06:41.821Z,21.33
2023-06-30T00:07:41.854Z,21.30
2023-06-30T00:08:41.752Z,21.26
2023-06-30T00:09:41.744Z,21.25
2023-06-30T00:10:41.661Z,21.33
2023-06-30T00:11:41.619Z,21.29
2023-06-30T00:12:41.597Z,21.30
2023-06-30T00:13:41.532Z,21.23
2023-06-30T00:14:41.511Z,21.25
2023-06-30T00:15:41.544Z,21.10
2023-06-30T00:16:41.414Z,21.22
2023-06-30T00:17:41.391Z,21.20
2023-06-30T00:18:41.333Z,21.13
2023-06-30T00:19:41.295Z,21.23
2023-06-30T00:20:41.257Z,21.20
2023-06-30T00:21:41.244Z,21.19
2023-06-30T00:22:41.174Z,21.19
2023-06-30T00:23:41.136Z,21.17
2023-06-30T00:24:41.091Z,21.15
2023-06-30T00:25:41.053Z,21.20
2023-06-30T00:26:41.021Z,21.15
2023-06-30T00:27:41.012Z,21.22
2023-06-30T00:28:40.934Z,21.15
2023-06-30T00:29:40.898Z,21.14
2023-06-30T00:30:40.858Z,21.15
2023-06-30T00:31:40.876Z,21.07
2023-06-30T00:32:40.825Z,21.13
2023-06-30T00:33:40.742Z,21.14
2023-06-30T00:34:40.695Z,21.10
2023-06-30T00:35:40.653Z,21.07
2023-06-30T00:36:40.607Z,21.07
2023-06-30T00:37:40.586Z,21.01
2023-06-30T00:38:40.597Z,20.98
2023-06-30T00:39:40.521Z,21.04
2023-06-30T00:40:40.457Z,21.00
2023-06-30T00:41:40.406Z,21.05
2023-06-30T00:42:40.370Z,20.98
2023-06-30T00:43:40.325Z,21.01
2023-06-30T00:44:40.286Z,20.98
2023-06-30T00:45:40.264Z,21.04
2023-06-30T00:46:40.240Z,20.98
2023-06-30T00:47:40.201Z,20.98
2023-06-30T00:48:40.140Z,20.95
2023-06-30T00:49:40.080Z,21.01
2023-06-30T00:50:40.041Z,21.03
2023-06-30T00:51:40.175Z,21.00
2023-06-30T00:52:39.968Z,20.96
2023-06-30T00:53:39.928Z,20.92
2023-06-30T00:54:39.883Z,20.92
2023-06-30T00:55:39.840Z,20.98
2023-06-30T00:56:39.801Z,21.03
2023-06-30T00:57:39.778Z,20.90
2023-06-30T00:58:39.718Z,20.89
2023-06-30T00:59:39.680Z,20.89
2023-06-30T01:00:39.642Z,20.86
2023-06-30T01:01:39.683Z,20.82
2023-06-30T01:02:39.615Z,20.83
2023-06-30T01:03:39.619Z,20.78
2023-06-30T01:04:39.598Z,20.80
2023-06-30T01:05:39.434Z,20.86
2023-06-30T01:06:39.399Z,20.77
2023-06-30T01:07:39.540Z,20.78
2023-06-30T01:08:39.317Z,20.80
2023-06-30T01:09:39.285Z,20.83
2023-06-30T01:10:39.259Z,20.85
2023-06-30T01:11:39.192Z,20.78
2023-06-30T01:12:39.154Z,20.77
2023-06-30T01:13:39.128Z,20.73
2023-06-30T01:14:39.080Z,20.71
2023-06-30T01:15:39.028Z,20.71
2023-06-30T01:16:39.014Z,20.77
2023-06-30T01:17:38.978Z,20.74
2023-06-30T01:18:38.912Z,20.77
2023-06-30T01:19:38.923Z,20.70
2023-06-30T01:20:38.834Z,20.82
2023-06-30T01:21:38.788Z,20.74
2023-06-30T01:22:38.751Z,20.75
2023-06-30T01:23:38.711Z,20.75
2023-06-30T01:24:38.660Z,20.68
2023-06-30T01:25:38.693Z,20.70
2023-06-30T01:26:38.584Z,20.68
2023-06-30T01:27:38.551Z,20.59
2023-06-30T01:28:38.557Z,20.67
2023-06-30T01:29:38.467Z,20.66
2023-06-30T01:30:38.438Z,20.59
2023-06-30T01:31:38.421Z,20.58
2023-06-30T01:32:38.413Z,20.55
2023-06-30T01:33:38.314Z,20.52
2023-06-30T01:34:38.285Z,20.48
2023-06-30T01:35:38.222Z,20.46
2023-06-30T01:36:38.184Z,20.33
2023-06-30T01:37:38.136Z,20.44
2023-06-30T01:38:38.122Z,20.33
2023-06-30T01:39:38.055Z,20.33
2023-06-30T01:40:38.027Z,20.36
2023-06-30T01:41:37.975Z,20.34
2023-06-30T01:42:37.967Z,20.37
2023-06-30T01:43:37.905Z,20.26
2023-06-30T01:44:37.882Z,20.36
2023-06-30T01:45:37.808Z,20.39
2023-06-30T01:46:37.816Z,20.30
2023-06-30T01:47:37.769Z,20.19
2023-06-30T01:48:37.687Z,20.21
2023-06-30T01:49:37.648Z,20.24
2023-06-30T01:50:37.609Z,20.15
2023-06-30T01:51:37.565Z,20.18
2023-06-30T01:52:37.538Z,20.15
2023-06-30T01:53:37.497Z,20.11
2023-06-30T01:54:37.443Z,20.17
2023-06-30T01:55:37.403Z,20.19
2023-06-30T01:56:37.364Z,20.14
2023-06-30T01:57:37.329Z,20.22
2023-06-30T01:58:37.276Z,20.22
2023-06-30T01:59:37.265Z,20.10
2023-06-30T02:00:37.225Z,20.22
2023-06-30T02:01:37.188Z,20.22
2023-06-30T02:02:37.165Z,20.18
2023-06-30T02:03:37.176Z,20.33
2023-06-30T02:04:37.034Z,20.27
2023-06-30T02:05:37.015Z,20.36
2023-06-30T02:06:36.990Z,20.26
2023-06-30T02:07:37.101Z,20.32
2023-06-30T02:08:36.875Z,20.29
2023-06-30T02:09:47.381Z,20.32
2023-06-30T02:10:36.789Z,20.34
2023-06-30T02:11:36.744Z,20.37
2023-06-30T02:12:36.797Z,20.30
2023-06-30T02:13:36.675Z,20.44
2023-06-30T02:14:36.613Z,20.37
2023-06-30T02:15:36.581Z,20.42
2023-06-30T02:16:36.555Z,20.36
2023-06-30T02:17:36.544Z,20.33
2023-06-30T02:18:36.466Z,20.37
2023-06-30T02:19:36.436Z,20.37
2023-06-30T02:20:36.414Z,20.50
2023-06-30T02:21:36.346Z,20.49
2023-06-30T02:22:36.291Z,20.46
2023-06-30T02:23:36.254Z,20.53
2023-06-30T02:24:36.213Z,20.55
2023-06-30T02:25:36.168Z,20.63
2023-06-30T02:26:36.299Z,20.59
2023-06-30T02:27:36.090Z,20.56
2023-06-30T02:28:36.044Z,20.60
2023-06-30T02:29:36.005Z,20.67
2023-06-30T02:30:35.969Z,20.70
2023-06-30T02:31:35.965Z,20.66
2023-06-30T02:32:35.929Z,20.71
2023-06-30T02:33:35.841Z,20.75
2023-06-30T02:34:35.802Z,20.75
2023-06-30T02:35:35.824Z,20.75
2023-06-30T02:36:35.719Z,20.77
2023-06-30T02:37:35.682Z,20.80
2023-06-30T02:38:35.659Z,20.75
2023-06-30T02:39:35.618Z,20.82
2023-06-30T02:40:35.558Z,20.83
2023-06-30T02:41:35.516Z,20.80
2023-06-30T02:42:35.482Z,20.78
2023-06-30T02:43:35.433Z,20.85
2023-06-30T02:44:35.402Z,20.89
2023-06-30T02:45:35.372Z,20.86
2023-06-30T02:46:35.321Z,20.88
2023-06-30T02:47:35.315Z,20.90
2023-06-30T02:48:35.232Z,20.90
2023-06-30T02:49:35.189Z,20.92
2023-06-30T02:50:35.191Z,20.95
2023-06-30T02:51:35.124Z,20.98
2023-06-30T02:52:35.068Z,21.03
2023-06-30T02:53:35.057Z,20.96
2023-06-30T02:54:34.984Z,21.03
2023-06-30T02:55:37.254Z,20.98
2023-06-30T02:56:34.903Z,20.96
2023-06-30T02:57:35.039Z,21.03
2023-06-30T02:58:34.848Z,21.01
2023-06-30T02:59:34.784Z,21.03
2023-06-30T03:00:34.738Z,21.01
2023-06-30T03:01:34.788Z,21.03
2023-06-30T03:02:34.867Z,21.08
2023-06-30T03:03:34.753Z,21.03
2023-06-30T03:04:34.614Z,21.03
2023-06-30T03:05:34.533Z,21.04
2023-06-30T03:06:34.496Z,21.03
2023-06-30T03:07:34.548Z,21.03
2023-06-30T03:08:34.413Z,21.00
2023-06-30T03:09:34.464Z,20.95
2023-06-30T03:10:34.349Z,20.90
2023-06-30T03:11:34.312Z,20.93
2023-06-30T03:12:34.259Z,20.86
2023-06-30T03:13:34.212Z,20.88
2023-06-30T03:14:34.167Z,20.90
2023-06-30T03:15:34.136Z,20.86
2023-06-30T03:16:34.130Z,20.90
2023-06-30T03:17:34.077Z,20.83
2023-06-30T03:18:34.010Z,20.89
2023-06-30T03:19:33.964Z,20.73
2023-06-30T03:20:33.925Z,20.83
2023-06-30T03:21:33.884Z,20.86
2023-06-30T03:22:33.856Z,20.73
2023-06-30T03:23:33.811Z,20.75
2023-06-30T03:24:33.761Z,20.74
2023-06-30T03:25:33.722Z,20.66
2023-06-30T03:26:33.677Z,20.56
2023-06-30T03:27:33.646Z,20.59
2023-06-30T03:28:33.618Z,20.53
2023-06-30T03:29:33.588Z,20.49
2023-06-30T03:30:33.558Z,20.44
2023-06-30T03:31:33.578Z,20.46
2023-06-30T03:32:33.578Z,20.40
2023-06-30T03:33:33.392Z,20.53
2023-06-30T03:34:33.350Z,20.53
2023-06-30T03:35:33.373Z,20.59
2023-06-30T03:36:33.281Z,20.48
2023-06-30T03:37:33.228Z,20.49
2023-06-30T03:38:33.188Z,20.44
2023-06-30T03:39:33.151Z,20.52
2023-06-30T03:40:33.210Z,20.50
2023-06-30T03:41:33.064Z,20.52
2023-06-30T03:42:33.023Z,20.42
2023-06-30T03:43:32.983Z,20.44
2023-06-30T03:44:32.943Z,20.46
2023-06-30T03:45:32.909Z,20.48
2023-06-30T03:46:32.932Z,20.63
2023-06-30T03:47:32.863Z,20.60
2023-06-30T03:48:32.777Z,20.70
2023-06-30T03:49:32.756Z,20.80
2023-06-30T03:50:32.705Z,20.75
2023-06-30T03:51:32.655Z,20.73
2023-06-30T03:52:32.614Z,20.78
2023-06-30T03:53:32.574Z,20.82
2023-06-30T03:54:32.532Z,20.85
2023-06-30T03:55:32.531Z,20.88
2023-06-30T03:56:32.453Z,20.83
2023-06-30T03:57:32.411Z,20.88
2023-06-30T03:58:32.401Z,20.89
2023-06-30T03:59:32.327Z,20.90
2023-06-30T04:00:32.290Z,20.92
2023-06-30T04:01:32.270Z,21.00
2023-06-30T04:02:32.275Z,21.00
2023-06-30T04:03:32.332Z,20.92
2023-06-30T04:04:32.288Z,20.90
2023-06-30T04:05:32.129Z,20.96
2023-06-30T04:06:32.056Z,20.88
2023-06-30T04:07:32.120Z,21.01
2023-06-30T04:08:32.054Z,20.89
2023-06-30T04:09:31.923Z,21.05
2023-06-30T04:10:31.879Z,21.07
2023-06-30T04:11:31.851Z,21.04
2023-06-30T04:12:31.805Z,21.10
2023-06-30T04:13:31.759Z,21.03
2023-06-30T04:14:31.733Z,21.14
2023-06-30T04:15:31.680Z,21.05
2023-06-30T04:16:31.664Z,21.04
2023-06-30T04:17:31.612Z,21.03
2023-06-30T04:18:31.588Z,21.01
2023-06-30T04:19:31.516Z,21.08
2023-06-30T04:20:31.474Z,21.07
2023-06-30T04:21:31.436Z,21.05
2023-06-30T04:22:31.415Z,21.07
2023-06-30T04:23:31.356Z,21.01
2023-06-30T04:24:31.337Z,21.10
2023-06-30T04:25:31.269Z,21.23
2023-06-30T04:26:31.230Z,21.17
2023-06-30T04:27:31.192Z,21.25
2023-06-30T04:28:31.148Z,21.29
2023-06-30T04:29:31.109Z,21.37
2023-06-30T04:30:31.107Z,21.30
2023-06-30T04:31:31.094Z,21.43
2023-06-30T04:32:31.015Z,21.40
2023-06-30T04:33:30.962Z,21.35
2023-06-30T04:34:30.905Z,21.35
2023-06-30T04:35:30.881Z,21.28
2023-06-30T04:36:30.856Z,21.33
2023-06-30T04:37:30.781Z,21.28
2023-06-30T04:38:30.769Z,21.33
2023-06-30T04:39:30.709Z,21.33
2023-06-30T04:40:30.669Z,21.41
2023-06-30T04:41:30.624Z,21.40
2023-06-30T04:42:30.596Z,21.35
2023-06-30T04:43:30.556Z,21.41
2023-06-30T04:44:30.501Z,21.30
2023-06-30T04:45:30.462Z,21.43
2023-06-30T04:46:30.454Z,21.41
2023-06-30T04:47:30.439Z,21.43
2023-06-30T04:48:30.354Z,21.56
2023-06-30T04:49:30.304Z,21.56
2023-06-30T04:50:30.266Z,21.48
2023-06-30T04:51:30.216Z,21.45
2023-06-30T04:52:30.202Z,21.45
2023-06-30T04:53:30.146Z,21.37
2023-06-30T04:54:30.114Z,21.40
2023-06-30T04:55:30.058Z,21.33
2023-06-30T04:56:30.023Z,21.29
2023-06-30T04:57:29.984Z,21.28
2023-06-30T04:58:29.945Z,21.25
2023-06-30T04:59:29.895Z,21.22
2023-06-30T05:00:29.907Z,21.17
2023-06-30T05:01:29.915Z,21.14
2023-06-30T05:02:29.793Z,21.08
2023-06-30T05:03:29.769Z,21.07
2023-06-30T05:04:29.689Z,21.05
2023-06-30T05:05:29.651Z,20.95
2023-06-30T05:06:29.619Z,21.01
2023-06-30T05:07:29.604Z,21.03
2023-06-30T05:08:29.527Z,20.82
2023-06-30T05:09:29.503Z,20.75
2023-06-30T05:10:29.441Z,20.82
2023-06-30T05:11:29.407Z,20.74
2023-06-30T05:12:29.363Z,20.77
2023-06-30T05:13:29.337Z,20.68
2023-06-30T05:14:29.274Z,20.67
2023-06-30T05:15:29.243Z,20.80
2023-06-30T05:16:29.538Z,20.78
2023-06-30T05:17:29.285Z,20.68
2023-06-30T05:18:29.111Z,20.60
2023-06-30T05:19:29.252Z,20.58
2023-06-30T05:20:29.030Z,20.66
2023-06-30T05:21:28.988Z,20.63
2023-06-30T05:22:28.949Z,20.59
2023-06-30T05:23:28.917Z,20.46
2023-06-30T05:24:28.866Z,20.49
2023-06-30T05:25:28.863Z,20.36
2023-06-30T05:26:28.829Z,20.39
2023-06-30T05:27:28.759Z,20.44
2023-06-30T05:28:28.703Z,20.24
2023-06-30T05:29:29.495Z,20.27
2023-06-30T05:30:28.621Z,20.26
2023-06-30T05:31:28.714Z,20.24
2023-06-30T05:32:28.597Z,20.17
2023-06-30T05:33:28.494Z,20.08
2023-06-30T05:34:28.540Z,20.10
2023-06-30T05:35:28.423Z,20.03
2023-06-30T05:36:28.378Z,19.97
2023-06-30T05:37:28.341Z,20.03
2023-06-30T05:38:28.290Z,20.02
2023-06-30T05:39:28.248Z,19.94
2023-06-30T05:40:28.243Z,20.08
2023-06-30T05:41:28.169Z,20.04
2023-06-30T05:42:28.119Z,19.99
2023-06-30T05:43:28.083Z,19.99
2023-06-30T05:44:28.093Z,19.94
2023-06-30T05:45:28.007Z,19.99
2023-06-30T05:46:28.019Z,20.04
2023-06-30T05:47:27.946Z,19.93
2023-06-30T05:48:27.876Z,20.04
2023-06-30T05:49:27.834Z,20.02
2023-06-30T05:50:27.814Z,20.07
2023-06-30T05:51:27.754Z,20.18
2023-06-30T05:52:27.711Z,20.24
2023-06-30T05:53:27.668Z,20.22
2023-06-30T05:54:27.627Z,20.24
2023-06-30T05:55:27.905Z,20.15
2023-06-30T05:56:27.573Z,20.19
2023-06-30T05:57:27.507Z,20.17
2023-06-30T05:58:27.464Z,20.22
2023-06-30T05:59:27.424Z,20.19
2023-06-30T06:03:47.576Z,20.08
2023-06-30T06:04:47.241Z,20.04
2023-06-30T06:05:47.760Z,19.96
2023-06-30T06:06:46.933Z,19.85
2023-06-30T06:07:46.910Z,19.90
2023-06-30T06:08:47.034Z,19.93
2023-06-30T06:09:46.878Z,19.93
2023-06-30T06:10:46.841Z,20.04
2023-06-30T06:11:46.741Z,20.04
2023-06-30T06:12:48.921Z,19.96
2023-06-30T06:13:47.067Z,19.90
2023-06-30T06:14:46.600Z,19.94
2023-06-30T06:15:46.968Z,19.87
2023-06-30T06:16:46.565Z,19.90
2023-06-30T06:17:46.711Z,19.96
2023-06-30T06:18:47.887Z,19.90
2023-06-30T06:19:46.433Z,19.97
2023-06-30T06:20:47.533Z,19.93
2023-06-30T06:21:46.313Z,19.93
2023-06-30T06:22:46.531Z,20.03
2023-06-30T06:23:46.222Z,20.04
2023-06-30T06:24:46.338Z,20.07
2023-06-30T06:25:47.706Z,20.04
2023-06-30T06:26:46.343Z,19.97
2023-06-30T06:27:46.088Z,20.07
2023-06-30T06:28:46.171Z,20.10
2023-06-30T06:29:45.980Z,20.08
2023-06-30T06:30:46.224Z,20.12
2023-06-30T06:31:45.969Z,20.17
2023-06-30T06:32:45.924Z,20.18
2023-06-30T06:33:47.418Z,20.33
2023-06-30T06:34:45.791Z,20.34
2023-06-30T06:35:46.220Z,20.27
2023-06-30T06:36:45.695Z,20.24
2023-06-30T06:37:45.860Z,20.27
2023-06-30T06:38:45.660Z,20.39
2023-06-30T06:39:45.835Z,20.40
2023-06-30T06:40:45.529Z,20.37
2023-06-30T06:41:45.639Z,20.36
2023-06-30T06:42:45.445Z,20.39
2023-06-30T06:43:45.408Z,20.36
2023-06-30T06:44:45.398Z,20.49
2023-06-30T06:45:45.953Z,20.40
2023-06-30T06:46:45.344Z,20.40
2023-06-30T06:47:47.574Z,20.55
2023-06-30T06:48:45.248Z,20.58
2023-06-30T06:49:47.038Z,20.68
2023-06-30T06:50:45.297Z,20.64
2023-06-30T06:51:45.108Z,20.67
2023-06-30T06:52:45.110Z,20.58
2023-06-30T06:53:45.250Z,20.60
2023-06-30T06:54:45.121Z,20.58
2023-06-30T06:55:45.204Z,20.56
2023-06-30T06:56:45.143Z,20.67
2023-06-30T06:57:44.863Z,20.59
2023-06-30T06:58:44.948Z,20.58
2023-06-30T06:59:44.837Z,20.42
2023-06-30T07:00:44.971Z,20.56
2023-06-30T07:01:44.785Z,20.44
2023-06-30T07:02:45.833Z,20.46
2023-06-30T07:03:44.667Z,20.42
2023-06-30T07:04:44.877Z,20.34
2023-06-30T07:05:45.053Z,20.42
2023-06-30T07:06:44.596Z,20.40
2023-06-30T07:07:46.742Z,20.53
2023-06-30T07:08:44.394Z,20.46
2023-06-30T07:09:44.617Z,20.50
2023-06-30T07:10:44.306Z,20.42
2023-06-30T07:11:46.878Z,20.48
2023-06-30T07:12:44.225Z,20.50
2023-06-30T07:13:44.190Z,20.52
2023-06-30T07:14:47.299Z,20.55
2023-06-30T07:15:46.589Z,20.56
2023-06-30T07:16:44.153Z,20.73
2023-06-30T07:17:45.328Z,20.66
2023-06-30T07:18:44.217Z,20.71
2023-06-30T07:19:43.951Z,20.71
2023-06-30T07:20:43.895Z,20.83
2023-06-30T07:21:44.091Z,20.86
2023-06-30T07:22:43.827Z,20.88
2023-06-30T07:23:44.933Z,20.92
2023-06-30T07:24:44.261Z,21.05
2023-06-30T07:25:43.830Z,21.05
2023-06-30T07:26:43.668Z,21.07
2023-06-30T07:27:43.733Z,21.05
2023-06-30T07:28:43.598Z,21.17
2023-06-30T07:29:43.946Z,21.37
2023-06-30T07:30:43.538Z,21.32
2023-06-30T07:31:43.464Z,21.48
2023-06-30T07:32:44.855Z,21.62
2023-06-30T07:33:43.370Z,21.68
2023-06-30T07:34:43.572Z,21.68
2023-06-30T07:35:43.941Z,21.78
2023-06-30T07:36:44.428Z,21.81
2023-06-30T07:37:43.395Z,21.84
2023-06-30T07:38:43.169Z,21.75
2023-06-30T07:39:43.402Z,21.85
2023-06-30T07:41:43.229Z,21.89
2023-06-30T07:42:43.272Z,22.03
2023-06-30T07:43:43.038Z,22.14
2023-06-30T07:44:43.030Z,22.12
2023-06-30T07:45:43.119Z,22.19
2023-06-30T07:46:43.058Z,22.26
2023-06-30T07:47:42.869Z,22.22
2023-06-30T07:48:44.546Z,22.34
2023-06-30T07:50:05.410Z,22.23
2023-06-30T07:50:54.791Z,22.43
2023-06-30T07:51:42.884Z,22.37
2023-06-30T07:52:43.973Z,22.43
2023-06-30T07:53:42.684Z,22.43
2023-06-30T07:54:42.547Z,22.34
2023-06-30T07:55:42.802Z,22.37
2023-06-30T07:56:42.718Z,22.25
2023-06-30T07:57:42.414Z,22.23
2023-06-30T07:58:42.516Z,22.25
2023-06-30T07:59:42.332Z,22.34
2023-06-30T08:00:42.530Z,22.31
2023-06-30T08:01:44.640Z,22.43
2023-06-30T08:02:42.406Z,22.43
2023-06-30T08:03:42.366Z,22.52
2023-06-30T08:04:42.468Z,22.56
2023-06-30T08:05:42.298Z,22.58
2023-06-30T08:06:42.076Z,22.63
2023-06-30T08:07:44.297Z,22.70
2023-06-30T08:08:42.229Z,22.78
2023-06-30T08:09:42.206Z,22.93
2023-06-30T08:10:42.368Z,22.96
2023-06-30T08:11:41.998Z,23.06
2023-06-30T08:12:42.029Z,23.02
2023-06-30T08:13:41.780Z,23.01
2023-06-30T08:14:42.022Z,22.95
2023-06-30T08:15:41.733Z,22.96
2023-06-30T08:16:42.912Z,23.04
2023-06-30T08:17:53.229Z,23.08
2023-06-30T08:18:51.789Z,23.10
2023-06-30T08:19:44.800Z,23.17
2023-06-30T08:20:41.859Z,23.28
2023-06-30T08:21:41.500Z,23.26
2023-06-30T08:22:43.997Z,23.39
2023-06-30T08:23:41.388Z,23.45
2023-06-30T08:24:41.350Z,23.51
2023-06-30T08:25:42.711Z,23.52
2023-06-30T08:26:41.268Z,23.47
2023-06-30T08:27:41.508Z,23.54
2023-06-30T08:28:41.605Z,23.48
2023-06-30T08:29:41.171Z,23.54
2023-06-30T08:30:41.144Z,23.51
2023-06-30T08:31:41.329Z,23.49
2023-06-30T08:32:41.098Z,23.58
2023-06-30T08:33:42.237Z,23.56
2023-06-30T08:34:41.200Z,23.64
2023-06-30T08:35:40.927Z,23.54
2023-06-30T08:36:40.886Z,23.70
2023-06-30T08:37:42.024Z,23.71
2023-06-30T08:38:40.801Z,23.84
2023-06-30T08:39:40.972Z,23.96
2023-06-30T08:40:41.101Z,24.00
2023-06-30T08:41:40.689Z,24.09
2023-06-30T08:42:40.646Z,24.21
2023-06-30T08:43:41.825Z,24.36
2023-06-30T08:44:40.611Z,24.31
2023-06-30T08:45:40.826Z,24.40
2023-06-30T08:46:41.737Z,24.50
2023-06-30T08:47:40.500Z,24.69
2023-06-30T08:48:40.418Z,24.77
2023-06-30T08:49:40.639Z,24.99
2023-06-30T08:50:40.343Z,25.09
2023-06-30T08:51:40.459Z,25.22
2023-06-30T08:52:40.294Z,25.25
2023-06-30T08:53:40.531Z,25.43
2023-06-30T08:54:41.279Z,25.26
2023-06-30T08:55:40.154Z,25.44
2023-06-30T08:56:40.290Z,25.26
2023-06-30T08:57:40.077Z,25.36
2023-06-30T08:58:40.299Z,25.22
2023-06-30T08:59:40.004Z,25.25
2023-06-30T09:00:40.184Z,25.36
2023-06-30T09:01:40.231Z,25.29
2023-06-30T09:02:41.302Z,25.33
2023-06-30T09:03:39.995Z,25.34
2023-06-30T09:04:41.017Z,25.21
2023-06-30T09:05:39.780Z,25.18
2023-06-30T09:06:39.948Z,25.24
2023-06-30T09:07:39.759Z,25.26
2023-06-30T09:08:40.795Z,25.24
2023-06-30T09:09:41.054Z,25.40
2023-06-30T09:10:40.806Z,25.43
2023-06-30T09:11:39.572Z,25.56
2023-06-30T09:12:39.786Z,25.55
2023-06-30T09:13:39.494Z,25.62
2023-06-30T09:14:39.602Z,25.58
2023-06-30T09:15:39.422Z,25.61
2023-06-30T09:16:40.703Z,25.39
2023-06-30T09:17:39.361Z,25.58
2023-06-30T09:18:39.429Z,25.56
2023-06-30T09:19:39.252Z,25.70
2023-06-30T09:20:39.298Z,25.98
2023-06-30T09:21:40.100Z,26.11
2023-06-30T09:23:00.136Z,26.13
2023-06-30T09:23:39.103Z,26.15
2023-06-30T09:24:39.264Z,26.27
2023-06-30T09:25:39.095Z,26.48
2023-06-30T09:26:39.339Z,26.68
2023-06-30T09:27:38.961Z,26.85
2023-06-30T09:28:40.109Z,27.18
2023-06-30T09:29:38.884Z,27.33
2023-06-30T09:30:39.103Z,27.58
2023-06-30T09:31:38.844Z,27.68
2023-06-30T09:32:38.878Z,27.76
2023-06-30T09:33:38.922Z,27.94
2023-06-30T09:34:38.708Z,27.95
2023-06-30T09:35:38.933Z,28.04
2023-06-30T09:36:38.630Z,28.03
2023-06-30T09:37:38.752Z,28.13
2023-06-30T09:38:38.796Z,28.23
2023-06-30T09:39:38.759Z,28.09
2023-06-30T09:40:38.483Z,28.06
2023-06-30T09:41:38.576Z,27.97
2023-06-30T09:42:38.419Z,27.78
2023-06-30T09:43:38.583Z,27.75
2023-06-30T09:44:38.403Z,27.73
2023-06-30T09:45:40.446Z,27.73
2023-06-30T09:46:38.377Z,27.57
2023-06-30T09:47:38.419Z,27.47
2023-06-30T09:48:38.197Z,27.53
2023-06-30T09:49:38.439Z,27.53
2023-06-30T09:50:38.156Z,27.60
2023-06-30T09:51:38.228Z,27.61
2023-06-30T09:52:38.058Z,27.53
2023-06-30T09:53:38.257Z,27.45
2023-06-30T09:54:44.588Z,27.38
2023-06-30T09:55:37.982Z,27.26
2023-06-30T09:56:38.068Z,27.26
2023-06-30T09:57:38.160Z,27.40
2023-06-30T09:58:37.840Z,27.30
2023-06-30T09:59:37.803Z,27.37
2023-06-30T10:00:37.941Z,27.25
2023-06-30T10:01:37.773Z,27.22
2023-06-30T10:02:59.066Z,27.08
2023-06-30T10:03:37.754Z,26.92
2023-06-30T10:04:38.738Z,26.92
2023-06-30T10:05:37.592Z,26.85
2023-06-30T10:06:37.850Z,26.68
2023-06-30T10:07:37.589Z,26.63
2023-06-30T10:08:37.519Z,26.49
2023-06-30T10:09:37.653Z,26.51
2023-06-30T10:10:37.697Z,26.42
2023-06-30T10:11:37.366Z,26.42
2023-06-30T10:12:37.472Z,26.49
2023-06-30T10:13:37.286Z,26.44
2023-06-30T10:14:37.692Z,26.41
2023-06-30T10:15:37.214Z,26.27
2023-06-30T10:16:37.183Z,26.15
2023-06-30T10:17:37.227Z,26.11
2023-06-30T10:18:37.378Z,26.10
2023-06-30T10:19:37.072Z,25.92
2023-06-30T10:20:47.091Z,25.78
2023-06-30T10:21:37.033Z,25.70
2023-06-30T10:22:37.218Z,25.73
2023-06-30T10:23:36.913Z,25.74
2023-06-30T10:24:38.166Z,25.63
2023-06-30T10:25:36.840Z,25.39
2023-06-30T10:26:36.829Z,25.29
2023-06-30T10:27:36.962Z,25.14
2023-06-30T10:28:39.021Z,25.07
2023-06-30T10:29:36.689Z,25.09
2023-06-30T10:30:37.225Z,24.93
2023-06-30T10:31:36.891Z,24.81
2023-06-30T10:32:36.825Z,24.81
2023-06-30T10:33:36.688Z,24.89
2023-06-30T10:34:36.501Z,24.79
2023-06-30T10:35:36.461Z,24.74
2023-06-30T10:36:36.618Z,24.69
2023-06-30T10:37:36.457Z,24.68
2023-06-30T10:38:36.633Z,24.69
2023-06-30T10:39:36.307Z,24.75
2023-06-30T10:40:36.272Z,24.75
2023-06-30T10:41:36.279Z,24.86
2023-06-30T10:42:37.491Z,24.94
2023-06-30T10:43:36.310Z,24.86
2023-06-30T10:44:36.269Z,24.99
2023-06-30T10:45:36.109Z,24.89
2023-06-30T10:46:36.077Z,24.85
2023-06-30T10:47:36.102Z,24.79
2023-06-30T10:48:36.093Z,24.77
2023-06-30T10:49:35.981Z,24.78
2023-06-30T10:50:38.359Z,24.77
2023-06-30T10:51:35.895Z,24.71
2023-06-30T10:52:35.812Z,24.68
2023-06-30T10:53:35.932Z,24.71
2023-06-30T10:54:35.746Z,24.77
2023-06-30T10:55:35.952Z,24.65
2023-06-30T10:56:35.694Z,24.65
2023-06-30T10:57:35.770Z,24.61
2023-06-30T10:58:35.593Z,24.47
2023-06-30T10:59:35.775Z,24.41
2023-06-30T11:00:35.504Z,24.34
2023-06-30T11:01:35.677Z,24.38
2023-06-30T11:02:35.925Z,24.43
2023-06-30T11:03:37.708Z,24.44
2023-06-30T11:04:35.517Z,24.34
2023-06-30T11:05:35.517Z,24.16
2023-06-30T11:06:35.277Z,24.24
2023-06-30T11:07:35.428Z,24.37
2023-06-30T11:08:35.208Z,24.53
2023-06-30T11:09:35.323Z,24.68
2023-06-30T11:10:35.124Z,24.77
2023-06-30T11:11:35.147Z,24.97
2023-06-30T11:12:35.046Z,25.09
2023-06-30T11:13:35.359Z,25.11
2023-06-30T11:14:34.967Z,25.04
2023-06-30T11:15:34.964Z,25.07
2023-06-30T11:16:34.891Z,25.06
2023-06-30T11:17:36.097Z,24.94
2023-06-30T11:18:34.939Z,25.09
2023-06-30T11:19:35.030Z,25.15
2023-06-30T11:20:34.743Z,25.34
2023-06-30T11:21:55.696Z,25.39
2023-06-30T11:22:34.673Z,25.24
2023-06-30T11:23:36.044Z,25.22
2023-06-30T11:24:34.587Z,25.39
2023-06-30T11:25:34.630Z,25.41
2023-06-30T11:26:34.513Z,25.67
2023-06-30T11:27:34.504Z,25.59
2023-06-30T11:28:34.435Z,25.67
2023-06-30T11:29:36.504Z,25.73
2023-06-30T11:30:34.413Z,25.76
2023-06-30T11:31:35.494Z,26.07
2023-06-30T11:32:34.324Z,26.08
2023-06-30T11:33:34.247Z,26.10
2023-06-30T11:34:34.211Z,26.39
2023-06-30T11:35:56.608Z,26.41
2023-06-30T11:36:34.134Z,26.39
2023-06-30T11:37:55.197Z,26.45
2023-06-30T11:38:34.065Z,26.63
2023-06-30T11:39:34.031Z,26.76
2023-06-30T11:40:33.991Z,26.79
2023-06-30T11:41:35.357Z,26.82
2023-06-30T11:42:33.915Z,26.98
2023-06-30T11:43:33.943Z,27.04
2023-06-30T11:44:33.850Z,27.29
2023-06-30T11:45:33.807Z,27.37
2023-06-30T11:46:35.878Z,27.47
2023-06-30T11:47:33.884Z,27.53
2023-06-30T11:48:33.780Z,27.71
2023-06-30T11:49:33.669Z,27.90
2023-06-30T11:50:33.786Z,27.98
2023-06-30T11:51:33.596Z,27.93
2023-06-30T11:52:35.661Z,28.19
2023-06-30T11:53:33.657Z,28.18
2023-06-30T11:54:34.634Z,28.43
2023-06-30T11:55:33.454Z,28.57
2023-06-30T11:56:33.478Z,28.68
2023-06-30T11:57:33.415Z,28.75
2023-06-30T11:58:34.460Z,28.92
2023-06-30T11:59:33.323Z,28.96
2023-06-30T12:00:33.461Z,29.03
2023-06-30T12:01:33.243Z,28.77
2023-06-30T12:02:33.258Z,28.65
2023-06-30T12:03:33.284Z,28.47
2023-06-30T12:04:33.353Z,28.28
2023-06-30T12:05:33.116Z,28.18
2023-06-30T12:06:33.294Z,28.18
2023-06-30T12:07:33.176Z,27.95
2023-06-30T12:08:33.184Z,27.73
2023-06-30T12:09:34.129Z,27.40
2023-06-30T12:10:32.960Z,27.29
2023-06-30T12:11:34.147Z,27.35
2023-06-30T12:12:32.842Z,27.33
2023-06-30T12:13:32.935Z,27.18
2023-06-30T12:14:32.770Z,26.85
2023-06-30T12:15:32.954Z,26.88
2023-06-30T12:16:32.781Z,26.64
2023-06-30T12:17:32.823Z,26.73
2023-06-30T12:18:32.625Z,26.61
2023-06-30T12:19:32.589Z,26.49
2023-06-30T12:20:32.624Z,26.51
2023-06-30T12:21:32.580Z,26.51
2023-06-30T12:22:32.478Z,26.37
2023-06-30T12:23:32.597Z,26.46
2023-06-30T12:24:32.399Z,26.49
2023-06-30T12:25:32.362Z,26.52
2023-06-30T12:26:32.352Z,26.27
2023-06-30T12:27:32.457Z,26.30
2023-06-30T12:28:32.265Z,26.41
2023-06-30T12:29:33.055Z,26.46
2023-06-30T12:30:32.191Z,26.51
2023-06-30T12:31:32.316Z,26.49
2023-06-30T12:32:32.225Z,26.51
2023-06-30T12:33:32.261Z,26.45
2023-06-30T12:34:32.122Z,26.44
2023-06-30T12:35:32.098Z,26.41
2023-06-30T12:36:31.976Z,26.52
2023-06-30T12:37:31.996Z,26.70
2023-06-30T12:38:32.321Z,26.98
2023-06-30T12:39:31.846Z,27.11
2023-06-30T12:40:32.111Z,27.37
2023-06-30T12:41:31.776Z,27.48
2023-06-30T12:42:31.744Z,27.57
2023-06-30T12:43:31.982Z,27.85
2023-06-30T12:44:31.758Z,27.93
2023-06-30T12:45:32.983Z,28.16
2023-06-30T12:46:34.023Z,28.27
2023-06-30T12:47:31.754Z,28.23
2023-06-30T12:48:31.519Z,28.38
2023-06-30T12:49:31.484Z,28.53
2023-06-30T12:50:33.616Z,28.60
2023-06-30T12:51:31.409Z,28.70
2023-06-30T12:52:31.797Z,28.70
2023-06-30T12:53:31.445Z,28.67
2023-06-30T12:54:31.401Z,28.67
2023-06-30T12:55:31.279Z,28.56
2023-06-30T12:56:52.312Z,28.46